Time;durP1;ratioP1;P1;durP2;ratioP2;P2;SDS_P1;SDS_P2;PMS_P1;PMS_P2;Temp;Humidity;BMP_temperature;BMP_pressure;BME280_temperature;BME280_humidity;BME280_pressure;Samples;Min_cycle;Max_cycle;Signal;HPM_P1;HPM_P2
2021/06/01 00:00:22;;;;;;;5.10;4.60;;;;;;;15.24;53.21;99433.19;5054360;28;20367;-74
2021/06/01 00:02:48;;;;;;;6.03;4.82;;;;;;;15.15;53.64;99436.63;5054209;28;20188;-74
2021/06/01 00:05:15;;;;;;;5.80;4.97;;;;;;;14.94;53.99;99437.34;5054235;28;20285;-73
2021/06/01 00:07:43;;;;;;;6.03;5.30;;;;;;;15.03;53.86;99441.16;5054134;28;20213;-74
2021/06/01 00:10:11;;;;;;;5.00;4.60;;;;;;;14.93;54.07;99434.75;5054280;28;20715;-73
2021/06/01 00:12:37;;;;;;;6.20;5.28;;;;;;;14.93;53.88;99440.19;5054362;28;20263;-74
2021/06/01 00:15:05;;;;;;;8.05;5.60;;;;;;;14.66;55.00;99429.66;5054079;28;20235;-74
2021/06/01 00:17:31;;;;;;;6.22;5.10;;;;;;;14.60;55.58;99430.97;5054320;28;20735;-74
2021/06/01 00:19:57;;;;;;;8.00;4.85;;;;;;;14.53;55.99;99427.84;5054242;28;20187;-73
2021/06/01 00:22:23;;;;;;;6.38;5.78;;;;;;;14.42;56.26;99424.25;5054293;28;20338;-73
2021/06/01 00:24:51;;;;;;;6.15;4.97;;;;;;;14.38;56.64;99413.66;5053825;28;20276;-73
2021/06/01 00:27:17;;;;;;;5.80;5.15;;;;;;;14.42;56.59;99424.25;5053875;28;20187;-73
2021/06/01 00:29:43;;;;;;;6.85;5.80;;;;;;;14.46;56.66;99415.75;5053199;28;20234;-73
2021/06/01 00:32:09;;;;;;;7.05;5.90;;;;;;;14.54;56.43;99420.56;5053643;28;20276;-73
2021/06/01 00:34:35;;;;;;;6.15;4.25;;;;;;;14.66;55.79;99414.25;5053426;28;20218;-74
2021/06/01 00:37:02;;;;;;;4.60;4.20;;;;;;;14.68;55.51;99406.88;5053218;28;20227;-74
2021/06/01 00:39:28;;;;;;;4.35;3.95;;;;;;;14.79;55.07;99415.03;5053194;28;20242;-73
2021/06/01 00:41:55;;;;;;;4.60;4.20;;;;;;;14.93;53.97;99408.50;5053978;28;20215;-74
2021/06/01 00:44:21;;;;;;;4.10;3.70;;;;;;;14.94;53.85;99415.63;5053749;28;20507;-71
2021/06/01 00:46:47;;;;;;;4.60;4.30;;;;;;;14.92;53.57;99420.31;5053785;28;20211;-73
2021/06/01 00:49:14;;;;;;;5.82;3.97;;;;;;;14.93;53.01;99418.50;5053647;28;20658;-73
2021/06/01 00:51:40;;;;;;;4.78;4.20;;;;;;;14.93;53.81;99410.38;5053463;28;20294;-75
2021/06/01 00:54:06;;;;;;;4.40;4.00;;;;;;;14.83;53.45;99410.22;5053138;28;20203;-74
2021/06/01 00:56:33;;;;;;;5.05;4.35;;;;;;;14.75;54.29;99424.38;5053253;28;20219;-73
2021/06/01 00:59:00;;;;;;;4.72;4.28;;;;;;;14.87;54.01;99422.53;5053363;28;20194;-73
2021/06/01 01:01:27;;;;;;;4.32;3.92;;;;;;;14.94;53.70;99412.94;5053392;28;20531;-75
2021/06/01 01:03:54;;;;;;;4.35;4.03;;;;;;;14.86;53.89;99418.13;5053421;28;20581;-72
2021/06/01 01:06:40;;;;;;;5.03;4.63;;;;;;;14.82;53.91;99407.63;5053369;28;20637;-75
2021/06/01 01:09:11;;;;;;;5.07;4.25;;;;;;;14.44;55.05;99408.75;5053023;28;20207;-74
2021/06/01 01:11:46;;;;;;;5.00;4.30;;;;;;;14.33;54.97;99407.72;5052599;28;20278;-75
2021/06/01 01:14:19;;;;;;;5.38;4.18;;;;;;;14.34;54.71;99403.19;5052565;28;20198;-75
2021/06/01 01:16:55;;;;;;;4.95;4.15;;;;;;;14.29;55.45;99402.66;5052453;28;20262;-77
2021/06/01 01:19:38;;;;;;;5.45;4.20;;;;;;;14.27;55.02;99402.78;5052535;28;20204;-74
2021/06/01 01:22:04;;;;;;;4.75;4.28;;;;;;;14.07;56.03;99409.72;5039339;28;20281;-72
2021/06/01 01:24:43;;;;;;;4.45;4.05;;;;;;;14.06;55.90;99407.09;5052417;28;20277;-75
2021/06/01 01:27:17;;;;;;;5.00;4.55;;;;;;;13.98;56.52;99410.41;5052648;28;20599;-74
2021/06/01 01:29:47;;;;;;;6.47;4.30;;;;;;;14.04;55.88;99412.66;5052430;28;20297;-75
2021/06/01 01:32:28;;;;;;;5.30;4.40;;;;;;;14.33;54.42;99415.84;5052706;28;20202;-74
2021/06/01 01:34:58;;;;;;;4.68;4.38;;;;;;;14.33;54.19;99415.84;5052401;28;20296;-72
2021/06/01 01:37:26;;;;;;;5.13;4.30;;;;;;;14.46;53.66;99425.75;5052840;28;20194;-74
2021/06/01 01:39:58;;;;;;;4.40;4.07;;;;;;;14.27;54.19;99413.63;5052093;28;20321;-72
2021/06/01 01:42:24;;;;;;;4.88;4.38;;;;;;;14.18;54.66;99412.47;5052075;28;20204;-73
2021/06/01 01:44:53;;;;;;;4.97;4.55;;;;;;;14.04;55.54;99422.59;5051930;28;20206;-73
2021/06/01 01:50:08;;;;;;;5.10;4.60;;;;;;;13.98;55.83;99424.78;5052041;28;20272;-74
2021/06/01 01:52:37;;;;;;;4.60;4.25;;;;;;;14.07;55.36;99416.97;5051645;28;20300;-74
2021/06/01 01:55:05;;;;;;;4.55;4.15;;;;;;;14.08;55.37;99426.81;5051456;28;20206;-72
2021/06/01 01:57:31;;;;;;;5.35;4.85;;;;;;;14.09;55.17;99420.44;5051498;28;20188;-72
2021/06/01 01:59:58;;;;;;;4.65;4.25;;;;;;;13.82;56.30;99418.81;5052003;28;20624;-74
2021/06/01 02:02:24;;;;;;;5.43;4.70;;;;;;;13.80;57.04;99428.03;5052062;28;20194;-73
2021/06/01 02:04:51;;;;;;;4.75;4.28;;;;;;;13.93;56.57;99428.84;5052015;28;20186;-73
2021/06/01 02:07:18;;;;;;;5.47;4.93;;;;;;;13.83;57.04;99427.78;5051982;28;20217;-74
2021/06/01 02:09:44;;;;;;;5.07;4.57;;;;;;;13.92;56.31;99421.69;5052005;28;20221;-73
2021/06/01 02:12:11;;;;;;;4.75;4.35;;;;;;;13.76;56.65;99417.41;5051441;28;20194;-73
2021/06/01 02:14:37;;;;;;;4.85;4.45;;;;;;;13.85;56.63;99432.09;5051911;28;20653;-74
2021/06/01 02:17:04;;;;;;;5.15;4.75;;;;;;;13.73;56.56;99423.06;5051331;28;20624;-73
2021/06/01 02:19:30;;;;;;;5.72;4.35;;;;;;;13.89;56.24;99425.50;5052062;28;20280;-72
2021/06/01 02:24:48;;;;;;;4.95;4.55;;;;;;;14.11;55.43;99423.84;5036894;28;20198;-74
2021/06/01 02:27:19;;;;;;;5.10;4.60;;;;;;;14.15;55.33;99426.22;5051766;28;20183;-73
2021/06/01 02:30:00;;;;;;;5.57;4.85;;;;;;;14.14;55.79;99429.91;5051547;28;20202;-73
2021/06/01 02:32:29;;;;;;;5.70;4.75;;;;;;;14.11;56.27;99430.16;5051427;28;20202;-73
2021/06/01 02:35:00;;;;;;;5.70;5.20;;;;;;;14.08;56.09;99424.97;5051601;28;20284;-73
2021/06/01 02:37:27;;;;;;;4.70;3.88;;;;;;;13.86;55.85;99433.84;5036623;28;20181;-73
2021/06/01 02:39:55;;;;;;;5.20;4.70;;;;;;;13.71;56.09;99430.41;5051357;28;20225;-73
2021/06/01 02:42:21;;;;;;;5.25;4.75;;;;;;;13.70;56.30;99431.41;5051444;28;20216;-73
2021/06/01 02:44:48;;;;;;;5.10;4.28;;;;;;;13.71;56.11;99416.03;5051158;28;20187;-74
2021/06/01 02:47:15;;;;;;;5.68;5.10;;;;;;;13.84;55.68;99424.97;5051436;28;20276;-73
2021/06/01 02:49:41;;;;;;;4.57;4.18;;;;;;;13.92;55.30;99419.84;5051354;28;20275;-73
2021/06/01 02:52:09;;;;;;;6.18;5.15;;;;;;;13.84;55.77;99415.97;5051345;28;20547;-74
2021/06/01 02:54:35;;;;;;;5.20;4.53;;;;;;;13.79;55.95;99419.00;5051732;28;20186;-73
2021/06/01 02:57:03;;;;;;;5.38;4.70;;;;;;;13.69;56.09;99424.25;5053944;28;20198;-74
2021/06/01 02:59:30;;;;;;;4.97;4.30;;;;;;;13.45;56.85;99416.09;5055380;28;20221;-72
2021/06/01 03:01:57;;;;;;;5.05;4.53;;;;;;;13.36;57.55;99416.75;5054574;28;20266;-75
2021/06/01 03:04:23;;;;;;;6.38;4.40;;;;;;;13.35;57.54;99417.75;5054527;28;20236;-74
2021/06/01 03:06:49;;;;;;;7.05;4.40;;;;;;;13.34;57.27;99424.13;5055497;28;20352;-74
2021/06/01 03:09:15;;;;;;;6.13;4.75;;;;;;;13.34;57.79;99421.41;5054265;28;20205;-72
2021/06/01 03:11:44;;;;;;;5.97;4.30;;;;;;;13.30;57.60;99414.53;5055189;28;20198;-75
2021/06/01 03:14:11;;;;;;;5.00;4.53;;;;;;;13.30;57.48;99407.28;5055313;28;20639;-73
2021/06/01 03:16:37;;;;;;;5.07;4.65;;;;;;;13.33;57.67;99414.28;5054688;28;20296;-74
2021/06/01 03:19:03;;;;;;;4.95;4.40;;;;;;;13.41;57.19;99413.72;5054749;28;20273;-73
2021/06/01 03:21:30;;;;;;;5.88;5.40;;;;;;;13.27;57.63;99420.09;5055131;28;20205;-74
2021/06/01 03:23:56;;;;;;;4.60;4.20;;;;;;;13.18;57.90;99415.34;5055236;28;20197;-74
2021/06/01 03:26:22;;;;;;;6.68;4.80;;;;;;;13.16;58.08;99407.38;5054614;28;20197;-74
2021/06/01 03:28:48;;;;;;;7.28;4.80;;;;;;;13.07;58.42;99413.41;5054405;28;20221;-75
2021/06/01 03:31:16;;;;;;;6.80;4.60;;;;;;;13.05;58.62;99405.44;5054955;28;20189;-73
2021/06/01 03:33:42;;;;;;;5.15;4.65;;;;;;;13.08;58.42;99398.94;5054562;28;20220;-77
2021/06/01 03:36:08;;;;;;;5.32;4.82;;;;;;;13.05;58.43;99400.03;5054474;28;20224;-74
2021/06/01 03:38:36;;;;;;;5.07;4.68;;;;;;;13.03;58.62;99396.56;5054555;28;20200;-75
2021/06/01 03:41:03;;;;;;;7.35;5.80;;;;;;;12.97;58.81;99394.28;5053820;28;20232;-74
2021/06/01 03:43:30;;;;;;;5.40;4.60;;;;;;;13.10;58.59;99400.56;5054599;28;20185;-75
2021/06/01 03:45:57;;;;;;;5.10;4.60;;;;;;;13.12;58.40;99404.03;5054673;28;20692;-73
2021/06/01 03:48:24;;;;;;;4.30;4.00;;;;;;;12.94;58.73;99398.09;5054096;28;20209;-74
2021/06/01 03:50:51;;;;;;;7.50;4.60;;;;;;;12.96;59.21;99394.41;5054794;28;20225;-75
2021/06/01 03:53:17;;;;;;;5.38;4.80;;;;;;;13.00;58.92;99398.63;5054336;28;20227;-73
2021/06/01 03:55:43;;;;;;;6.47;4.35;;;;;;;13.07;58.62;99397.19;5054226;28;20583;-74
2021/06/01 03:58:10;;;;;;;6.63;4.85;;;;;;;12.93;58.75;99403.59;5053867;28;20276;-72
2021/06/01 04:00:36;;;;;;;4.72;4.32;;;;;;;12.87;58.96;99399.50;5053947;28;20252;-73
2021/06/01 04:03:03;;;;;;;4.97;4.53;;;;;;;12.84;59.07;99402.41;5054114;28;20197;-73
2021/06/01 04:05:30;;;;;;;6.13;5.30;;;;;;;12.86;58.99;99394.19;5053790;28;20204;-72
2021/06/01 04:07:57;;;;;;;5.30;4.80;;;;;;;13.01;58.81;99398.50;5035386;28;20292;-74
2021/06/01 04:10:23;;;;;;;4.82;4.43;;;;;;;13.09;58.21;99404.25;5053762;28;20193;-73
2021/06/01 04:12:49;;;;;;;5.50;4.70;;;;;;;12.99;58.81;99405.00;5053989;28;20213;-71
2021/06/01 04:15:16;;;;;;;5.20;4.68;;;;;;;12.97;58.88;99409.66;5053962;28;20189;-74
2021/06/01 04:17:42;;;;;;;5.20;4.70;;;;;;;12.92;59.09;99400.03;5053912;28;20194;-74
2021/06/01 04:20:09;;;;;;;5.70;5.20;;;;;;;12.98;58.85;99404.16;5052813;28;20197;-74
2021/06/01 04:22:37;;;;;;;5.18;4.68;;;;;;;12.94;59.06;99400.78;5054232;28;20260;-74
2021/06/01 04:25:05;;;;;;;6.40;5.20;;;;;;;12.92;59.20;99400.03;5054002;28;20217;-73
2021/06/01 04:27:31;;;;;;;9.82;8.35;;;;;;;13.05;58.90;99397.34;5053669;28;20375;-73
2021/06/01 04:29:57;;;;;;;5.20;4.70;;;;;;;13.07;58.61;99391.78;5053562;28;20247;-74
2021/06/01 04:32:23;;;;;;;5.45;4.95;;;;;;;13.20;58.36;99403.44;5053161;28;20221;-73
2021/06/01 04:34:49;;;;;;;5.65;4.65;;;;;;;13.34;57.93;99399.78;5053831;28;20222;-74
2021/06/01 04:37:16;;;;;;;4.97;4.53;;;;;;;13.58;57.08;99397.13;5053320;28;20280;-72
2021/06/01 04:39:43;;;;;;;4.95;4.47;;;;;;;13.43;57.52;99403.66;5052420;28;20224;-73
2021/06/01 04:42:09;;;;;;;5.32;4.80;;;;;;;13.66;57.16;99397.44;5052773;28;20238;-72
2021/06/01 04:44:36;;;;;;;7.03;5.07;;;;;;;13.79;56.56;99396.50;5053143;28;20268;-72
2021/06/01 04:47:02;;;;;;;7.20;5.03;;;;;;;13.65;56.84;99403.81;5053085;28;20277;-75
2021/06/01 04:49:28;;;;;;;5.32;4.35;;;;;;;13.58;57.41;99391.72;5053131;28;20213;-72
2021/06/01 04:51:54;;;;;;;4.60;4.20;;;;;;;13.48;57.52;99396.94;5052986;28;20193;-74
2021/06/01 04:54:20;;;;;;;7.80;5.68;;;;;;;13.75;56.95;99399.47;5052742;28;20226;-74
2021/06/01 04:56:48;;;;;;;5.20;4.72;;;;;;;13.75;57.05;99395.91;5052814;28;20277;-75
2021/06/01 04:59:14;;;;;;;5.32;4.80;;;;;;;13.96;56.05;99386.16;5052328;28;20195;-74
2021/06/01 05:01:41;;;;;;;5.75;5.10;;;;;;;14.16;55.80;99390.06;5052806;28;20553;-73
2021/06/01 05:04:07;;;;;;;5.35;4.88;;;;;;;14.53;54.20;99395.34;5052965;28;20616;-73
2021/06/01 05:06:34;;;;;;;7.32;5.78;;;;;;;14.66;53.98;99395.28;5053238;28;20603;-73
2021/06/01 05:09:01;;;;;;;5.80;5.25;;;;;;;14.96;53.20;99383.84;5051565;28;20297;-74
2021/06/01 05:11:27;;;;;;;5.88;4.43;;;;;;;15.33;51.71;99390.88;5053009;28;20540;-72
2021/06/01 05:13:54;;;;;;;5.78;4.30;;;;;;;15.31;51.52;99390.13;5052403;28;20277;-73
2021/06/01 05:16:21;;;;;;;5.05;4.55;;;;;;;15.29;51.41;99390.28;5052098;28;20207;-74
2021/06/01 05:18:47;;;;;;;5.40;4.90;;;;;;;15.35;51.25;99383.47;5051149;28;20351;-73
2021/06/01 05:21:13;;;;;;;5.95;5.00;;;;;;;15.20;51.76;99383.75;5064595;28;20635;-72
2021/06/01 05:23:39;;;;;;;6.40;5.18;;;;;;;14.96;52.35;99383.84;5092570;28;20193;-75
2021/06/01 05:26:05;;;;;;;9.73;7.22;;;;;;;15.08;52.40;99383.84;5101191;28;20187;-76
2021/06/01 05:28:32;;;;;;;5.00;4.40;;;;;;;14.69;53.20;99389.63;5092231;28;20206;-75
2021/06/01 05:31:10;;;;;;;7.15;6.47;;;;;;;14.71;53.26;99384.94;5112945;28;20209;-74
2021/06/01 05:33:37;;;;;;;6.95;6.35;;;;;;;14.78;53.00;99388.88;5103662;28;20707;-74
2021/06/01 05:36:04;;;;;;;6.05;5.07;;;;;;;14.91;52.82;99387.94;5094739;28;20190;-74
2021/06/01 05:38:31;;;;;;;4.95;4.45;;;;;;;15.30;51.83;99391.13;5103170;28;20199;-72
2021/06/01 05:40:59;;;;;;;6.00;4.78;;;;;;;15.25;51.78;99386.09;5091959;28;20229;-73
2021/06/01 05:43:25;;;;;;;6.45;5.80;;;;;;;15.60;50.97;99379.63;5092327;28;20207;-73
2021/06/01 05:45:52;;;;;;;6.47;5.10;;;;;;;15.87;50.27;99381.91;5091692;28;20202;-74
2021/06/01 05:48:19;;;;;;;5.47;4.95;;;;;;;15.96;50.01;99383.00;5091474;28;20293;-75
2021/06/01 05:50:46;;;;;;;5.60;5.13;;;;;;;16.32;48.91;99375.47;5092039;28;20180;-74
2021/06/01 05:53:15;;;;;;;5.55;5.00;;;;;;;16.41;48.77;99386.38;5092461;28;20195;-75
2021/06/01 05:55:41;;;;;;;7.00;5.10;;;;;;;16.46;48.40;99383.28;5091901;28;20199;-74
2021/06/01 05:58:07;;;;;;;4.70;4.20;;;;;;;16.49;48.23;99391.19;5091667;28;20231;-75
2021/06/01 06:00:33;;;;;;;4.45;4.05;;;;;;;16.51;47.90;99391.03;5091893;28;20192;-73
2021/06/01 06:03:03;;;;;;;5.32;4.43;;;;;;;16.02;49.23;99394.22;5091735;28;20332;-75
2021/06/01 06:05:31;;;;;;;5.10;4.70;;;;;;;16.38;48.65;99391.25;5092831;28;20191;-76
2021/06/01 06:08:05;;;;;;;4.95;4.30;;;;;;;15.90;49.83;99392.53;5095657;28;20229;-73
2021/06/01 06:10:33;;;;;;;7.43;5.80;;;;;;;16.30;49.09;99389.16;5097445;28;20197;-74
2021/06/01 06:13:00;;;;;;;4.68;4.18;;;;;;;16.17;49.07;99385.78;5092441;28;20183;-76
2021/06/01 06:15:28;;;;;;;6.00;5.32;;;;;;;16.20;49.33;99382.81;5112350;28;20286;-73
2021/06/01 06:18:02;;;;;;;4.40;4.10;;;;;;;16.36;49.06;99382.34;5112513;28;20230;-73
2021/06/01 06:20:28;;;;;;;5.35;4.90;;;;;;;16.70;48.32;99377.56;5112148;28;20202;-73
2021/06/01 06:22:56;;;;;;;5.68;4.70;;;;;;;16.92;47.68;99368.44;5105961;28;20199;-73
2021/06/01 06:25:22;;;;;;;5.20;4.75;;;;;;;17.19;46.51;99369.72;5103031;28;20195;-73
2021/06/01 06:27:48;;;;;;;4.88;4.15;;;;;;;17.40;45.80;99377.81;5091836;28;20275;-73
2021/06/01 06:30:17;;;;;;;3.70;3.40;;;;;;;17.34;45.75;99376.47;5091697;28;20200;-73
2021/06/01 06:32:44;;;;;;;5.68;4.18;;;;;;;17.61;45.38;99380.44;5095861;28;20207;-73
2021/06/01 06:35:11;;;;;;;6.40;4.03;;;;;;;17.83;44.42;99369.34;5096425;28;20191;-74
2021/06/01 06:37:37;;;;;;;4.55;4.10;;;;;;;17.98;43.91;99372.53;5096172;28;20246;-74
2021/06/01 06:40:07;;;;;;;5.00;4.50;;;;;;;18.14;43.74;99371.97;5075975;28;20260;-74
2021/06/01 06:42:33;;;;;;;4.70;4.30;;;;;;;18.21;43.71;99374.97;5079882;28;20224;-73
2021/06/01 06:45:00;;;;;;;4.57;4.18;;;;;;;17.98;43.74;99377.13;5094853;28;20192;-73
2021/06/01 06:47:29;;;;;;;5.70;4.60;;;;;;;18.03;43.96;99372.94;5094735;28;20226;-74
2021/06/01 06:49:56;;;;;;;4.00;3.60;;;;;;;18.41;43.22;99373.97;5095199;28;20669;-73
2021/06/01 06:52:22;;;;;;;5.88;3.75;;;;;;;18.55;43.05;99375.38;5096210;28;20192;-74
2021/06/01 06:54:49;;;;;;;5.18;4.63;;;;;;;18.47;43.20;99373.34;5095445;28;20187;-73
2021/06/01 06:57:16;;;;;;;4.38;4.07;;;;;;;18.49;42.89;99376.78;5095808;28;20693;-73
2021/06/01 06:59:43;;;;;;;5.40;4.60;;;;;;;18.65;42.80;99359.00;5095860;28;20280;-73
2021/06/01 07:02:09;;;;;;;6.82;4.60;;;;;;;18.86;42.30;99356.97;5116107;28;20230;-74
2021/06/01 07:04:36;;;;;;;5.72;4.07;;;;;;;19.05;42.24;99355.19;5095500;28;20251;-74
2021/06/01 07:07:02;;;;;;;3.83;3.30;;;;;;;19.14;41.67;99352.41;5095469;28;20206;-71
2021/06/01 07:09:28;;;;;;;3.65;3.35;;;;;;;18.97;41.79;99347.72;5095374;28;20213;-73
2021/06/01 07:11:55;;;;;;;5.88;3.90;;;;;;;19.09;41.89;99351.16;5095160;28;20230;-73
2021/06/01 07:14:40;;;;;;;3.92;3.40;;;;;;;19.39;40.56;99344.53;5095089;28;20208;-74
2021/06/01 07:17:06;;;;;;;3.50;3.20;;;;;;;19.41;40.60;99342.53;5095624;28;20292;-74
2021/06/01 07:19:33;;;;;;;4.18;3.78;;;;;;;19.76;40.47;99336.31;5095084;28;20201;-72
2021/06/01 07:22:00;;;;;;;3.92;3.63;;;;;;;19.79;39.72;99346.06;5095238;28;20199;-74
2021/06/01 07:24:26;;;;;;;3.50;3.20;;;;;;;19.84;38.58;99340.13;5095322;28;20660;-73
2021/06/01 07:26:52;;;;;;;3.78;3.47;;;;;;;19.94;38.96;99335.44;5095181;28;20632;-75
2021/06/01 07:29:18;;;;;;;3.70;3.10;;;;;;;20.02;38.74;99337.41;5095194;28;20263;-73
2021/06/01 07:31:49;;;;;;;4.40;3.63;;;;;;;19.90;38.32;99334.91;5094764;28;20189;-75
2021/06/01 07:34:15;;;;;;;4.45;3.33;;;;;;;20.18;38.05;99343.03;5095150;28;20186;-73
2021/06/01 07:36:42;;;;;;;3.10;2.80;;;;;;;20.13;38.18;99338.03;5095031;28;20283;-74
2021/06/01 07:39:08;;;;;;;3.60;3.30;;;;;;;20.15;37.63;99338.72;5094571;28;20195;-73
2021/06/01 07:41:37;;;;;;;3.00;2.80;;;;;;;20.27;38.00;99335.75;5094755;28;20263;-74
2021/06/01 07:44:05;;;;;;;5.65;3.05;;;;;;;20.60;37.81;99340.50;5093844;28;20194;-73
2021/06/01 07:46:32;;;;;;;6.97;3.40;;;;;;;20.63;37.08;99341.19;5094554;28;20198;-73
2021/06/01 07:49:00;;;;;;;8.55;3.30;;;;;;;20.78;36.72;99345.03;5094750;28;20258;-73
2021/06/01 07:51:31;;;;;;;3.35;3.15;;;;;;;20.98;36.31;99334.75;5094613;28;20191;-73
2021/06/01 07:53:58;;;;;;;4.90;3.10;;;;;;;20.97;35.79;99333.03;5094517;28;20187;-73
2021/06/01 07:56:24;;;;;;;3.53;3.22;;;;;;;21.01;36.34;99339.91;5106051;28;20285;-74
2021/06/01 07:58:51;;;;;;;3.55;3.00;;;;;;;21.00;36.13;99330.81;5099240;28;20304;-73
2021/06/01 08:01:17;;;;;;;3.65;2.92;;;;;;;21.05;35.67;99324.84;5095046;28;20286;-74
2021/06/01 08:03:44;;;;;;;9.52;2.90;;;;;;;20.78;34.97;99323.16;5094711;28;20187;-73
2021/06/01 08:06:12;;;;;;;13.70;3.40;;;;;;;21.03;34.31;99322.31;5094821;28;20203;-74
2021/06/01 08:08:38;;;;;;;10.88;3.10;;;;;;;21.10;35.12;99316.16;5095088;28;20199;-72
2021/06/01 08:11:05;;;;;;;4.40;3.05;;;;;;;21.23;34.74;99309.22;5094585;28;20191;-73
2021/06/01 08:13:32;;;;;;;7.50;3.08;;;;;;;21.34;33.20;99315.41;5095280;28;20642;-72
2021/06/01 08:15:59;;;;;;;4.50;4.07;;;;;;;21.22;32.50;99317.59;5094863;28;20242;-73
2021/06/01 08:18:27;;;;;;;4.77;3.20;;;;;;;21.36;32.39;99314.22;5094505;28;20191;-73
2021/06/01 08:21:01;;;;;;;2.70;2.50;;;;;;;21.58;32.25;99317.41;5093645;28;20595;-74
2021/06/01 08:23:29;;;;;;;4.93;2.43;;;;;;;21.69;31.80;99321.72;5093581;28;20421;-74
2021/06/01 08:25:55;;;;;;;3.33;2.90;;;;;;;21.84;31.79;99320.03;5095330;28;20430;-73
2021/06/01 08:28:21;;;;;;;4.07;3.23;;;;;;;21.85;31.54;99311.66;5094775;28;20286;-70
2021/06/01 08:30:48;;;;;;;2.60;2.30;;;;;;;21.86;31.35;99313.34;5094913;28;20745;-73
2021/06/01 08:33:14;;;;;;;3.37;2.87;;;;;;;21.84;30.67;99320.03;5093890;28;20928;-73
2021/06/01 08:35:40;;;;;;;3.40;2.17;;;;;;;21.85;30.97;99317.13;5094994;28;20524;-73
2021/06/01 08:38:07;;;;;;;4.50;3.80;;;;;;;21.78;31.02;99321.56;5094187;28;20434;-76
2021/06/01 08:40:35;;;;;;;4.50;2.53;;;;;;;21.70;31.03;99310.59;5092459;28;21264;-75
2021/06/01 08:43:01;;;;;;;3.00;2.73;;;;;;;21.70;30.98;99302.38;5093252;28;20445;-76
2021/06/01 08:45:28;;;;;;;3.00;2.67;;;;;;;21.89;30.49;99289.38;5092820;28;20473;-75
2021/06/01 08:47:56;;;;;;;5.67;2.60;;;;;;;21.90;30.87;99296.59;5093548;28;20442;-74
2021/06/01 08:50:22;;;;;;;2.97;2.73;;;;;;;22.03;30.70;99307.91;5093288;28;20528;-76
2021/06/01 08:52:49;;;;;;;2.93;2.70;;;;;;;21.93;29.98;99313.53;5093994;28;20449;-73
2021/06/01 08:55:16;;;;;;;4.20;2.50;;;;;;;21.94;30.55;99309.78;5092608;28;20433;-75
2021/06/01 08:57:44;;;;;;;2.60;2.40;;;;;;;22.16;30.27;99304.66;5093696;28;20434;-73
2021/06/01 09:00:12;;;;;;;3.53;2.83;;;;;;;22.42;30.07;99302.63;5092930;28;20507;-74
2021/06/01 09:02:39;;;;;;;8.67;5.70;;;;;;;22.52;30.21;99304.31;5093621;28;20442;-74
2021/06/01 09:05:08;;;;;;;2.53;2.33;;;;;;;22.68;29.45;99296.94;5092499;28;20530;-74
2021/06/01 09:07:47;;;;;;;3.30;2.73;;;;;;;22.62;29.07;99294.88;5093084;28;20536;-74
2021/06/01 09:21:42;;;;;;;4.73;2.90;;;;;;;22.72;28.45;99286.47;5093900;28;20437;-73
2021/06/01 09:24:09;;;;;;;3.43;2.13;;;;;;;22.79;28.44;99284.72;5092998;28;20422;-74
2021/06/01 09:26:59;;;;;;;5.57;2.83;;;;;;;22.80;28.75;99286.44;5092832;28;20847;-74
2021/06/01 09:29:29;;;;;;;2.20;2.00;;;;;;;22.74;28.11;99287.13;5091896;28;20458;-72
2021/06/01 09:32:12;;;;;;;3.60;2.30;;;;;;;22.62;28.46;99283.91;5086953;28;20518;-73
2021/06/01 09:34:41;;;;;;;3.80;3.40;;;;;;;22.98;27.90;99280.72;5092445;28;20542;-72
2021/06/01 09:37:19;;;;;;;2.10;1.90;;;;;;;22.78;28.12;99282.16;5091795;28;20525;-73
2021/06/01 09:39:46;;;;;;;3.20;2.90;;;;;;;23.03;27.90;99280.22;5092101;28;20469;-75
2021/06/01 09:42:24;;;;;;;5.30;2.80;;;;;;;23.10;27.48;99276.59;5091268;28;20458;-73
2021/06/01 09:45:04;;;;;;;5.33;2.00;;;;;;;23.12;27.18;99273.69;5091462;28;20512;-72
2021/06/01 09:47:44;;;;;;;3.63;2.07;;;;;;;23.33;26.75;99267.56;5082432;28;20805;-73
2021/06/01 09:50:16;;;;;;;3.60;1.93;;;;;;;23.34;26.48;99266.56;5089803;28;20505;-75
2021/06/01 09:52:46;;;;;;;5.60;2.03;;;;;;;23.06;25.75;99271.63;5092336;28;20552;-73
2021/06/01 09:55:23;;;;;;;2.67;2.47;;;;;;;23.22;26.74;99265.22;5091164;28;20434;-73
2021/06/01 09:57:49;;;;;;;2.70;2.50;;;;;;;23.49;26.53;99262.00;5089283;28;20524;-73
2021/06/01 10:00:19;;;;;;;2.80;2.60;;;;;;;23.35;26.24;99260.00;5092044;28;20426;-73
2021/06/01 10:02:46;;;;;;;3.40;2.63;;;;;;;23.27;27.29;99257.31;5091076;28;20495;-73
2021/06/01 10:05:15;;;;;;;2.43;2.23;;;;;;;23.14;27.11;99246.91;5090626;28;20523;-74
2021/06/01 10:07:42;;;;;;;2.40;2.20;;;;;;;23.31;26.38;99242.16;5091195;28;20446;-74
2021/06/01 10:10:14;;;;;;;4.23;2.23;;;;;;;23.52;25.20;99244.31;5091547;28;20544;-74
2021/06/01 10:12:40;;;;;;;2.33;1.73;;;;;;;23.62;25.34;99239.41;5090700;28;20430;-73
2021/06/01 10:15:08;;;;;;;3.47;2.40;;;;;;;23.79;25.50;99242.94;5091383;28;20948;-74
2021/06/01 10:17:36;;;;;;;5.37;2.20;;;;;;;23.80;25.49;99241.88;5090078;28;20904;-71
2021/06/01 10:20:03;;;;;;;2.30;2.03;;;;;;;23.77;24.98;99244.19;5090766;28;20430;-72
2021/06/01 10:22:30;;;;;;;2.97;2.03;;;;;;;23.77;25.42;99241.44;5091310;28;20483;-73
2021/06/01 10:24:57;;;;;;;2.50;2.30;;;;;;;23.88;25.33;99241.00;5090973;28;20511;-73
2021/06/01 10:27:24;;;;;;;2.70;2.50;;;;;;;23.96;26.23;99237.31;5091379;28;20530;-74
2021/06/01 10:29:50;;;;;;;3.20;2.83;;;;;;;24.10;25.86;99234.59;5090831;28;20490;-73
2021/06/01 10:32:17;;;;;;;2.60;2.10;;;;;;;24.09;25.70;99234.81;5091079;28;20516;-73
2021/06/01 10:34:45;;;;;;;2.30;2.10;;;;;;;23.90;25.18;99238.88;5092185;28;21256;-73
2021/06/01 10:43:23;;;;;;;2.53;1.80;;;;;;;23.57;25.07;99230.88;5091033;28;20421;-73
2021/06/01 10:52:17;;;;;;;3.40;3.10;;;;;;;24.03;25.16;99230.03;5056276;28;20419;-74
2021/06/01 10:55:06;;;;;;;2.20;2.00;;;;;;;23.89;25.56;99223.44;5070500;28;20444;-73
2021/06/01 10:57:56;;;;;;;2.20;2.00;;;;;;;23.77;25.16;99216.69;5070070;28;20518;-71
2021/06/01 11:03:10;;;;;;;92.43;84.00;;;;;;;23.75;25.09;99225.09;5070454;28;20434;-72
2021/06/01 11:06:03;;;;;;;3.20;2.90;;;;;;;23.74;24.58;99226.09;5070459;28;20500;-72
2021/06/01 11:08:36;;;;;;;3.33;2.37;;;;;;;23.90;25.23;99214.16;5071114;28;20423;-72
2021/06/01 11:11:32;;;;;;;3.13;2.47;;;;;;;24.06;25.00;99218.66;5070805;28;20448;-74
2021/06/01 11:14:00;;;;;;;2.20;2.00;;;;;;;23.99;25.74;99214.94;5053742;28;20441;-73
2021/06/01 11:16:47;;;;;;;3.47;1.90;;;;;;;23.89;25.51;99213.28;5067994;28;20881;-73
2021/06/01 11:19:14;;;;;;;2.83;2.40;;;;;;;24.10;25.36;99209.84;5074285;28;20540;-74
2021/06/01 11:21:55;;;;;;;2.70;2.50;;;;;;;23.98;25.64;99211.34;5073967;28;20495;-73
2021/06/01 11:33:15;;;;;;;2.90;2.60;;;;;;;24.09;26.08;99197.16;5066079;28;20430;-72
2021/06/01 11:35:43;;;;;;;2.80;2.23;;;;;;;24.04;25.93;99193.25;5074083;28;20760;-73
2021/06/01 11:38:17;;;;;;;2.70;2.50;;;;;;;24.11;25.66;99195.06;5073317;28;20479;-74
2021/06/01 11:43:34;;;;;;;3.13;2.40;;;;;;;24.14;25.89;99182.84;5086492;28;20478;-73
2021/06/01 11:46:08;;;;;;;3.20;2.40;;;;;;;24.16;26.47;99186.25;5093547;28;20528;-74
2021/06/01 11:51:30;;;;;;;4.50;3.60;;;;;;;24.23;26.10;99178.13;5089482;28;20420;-73
2021/06/01 11:53:59;;;;;;;2.60;2.40;;;;;;;24.35;25.73;99179.34;5094127;28;20445;-73
2021/06/01 11:56:57;;;;;;;2.43;2.23;;;;;;;24.19;26.24;99180.38;5093846;28;20428;-74
2021/06/01 12:02:18;;;;;;;5.60;2.47;;;;;;;24.19;25.00;99183.13;5087291;28;20662;-73
2021/06/01 12:05:03;;;;;;;10.70;3.90;;;;;;;24.22;24.95;99174.50;5093479;28;20428;-74
2021/06/01 12:13:19;;;;;;;3.80;2.20;;;;;;;24.27;26.40;99166.53;5101924;28;20455;-73
2021/06/01 12:18:34;;;;;;;6.57;2.87;;;;;;;24.41;26.65;99166.75;5093856;28;20793;-72
2021/06/01 12:21:03;;;;;;;2.70;2.50;;;;;;;24.46;26.45;99165.13;5094201;28;20477;-72
2021/06/01 12:23:32;;;;;;;3.80;2.77;;;;;;;24.54;25.79;99155.97;5094065;28;20437;-71
2021/06/01 12:26:07;;;;;;;7.37;2.80;;;;;;;24.61;25.21;99156.91;5093407;28;20494;-73
2021/06/01 12:31:49;;;;;;;3.30;3.10;;;;;;;24.60;27.18;99155.19;5093406;28;20486;-74
2021/06/01 12:34:18;;;;;;;6.10;5.00;;;;;;;24.89;27.12;99150.69;5093959;28;20536;-73
2021/06/01 12:45:47;;;;;;;3.13;2.90;;;;;;;25.98;25.88;99148.75;5062458;28;20783;-73
2021/06/01 13:19:26;;;;;;;3.10;2.83;;;;;;;31.12;19.19;99113.28;5075804;28;20430;-71
2021/06/01 13:21:56;;;;;;;2.60;2.40;;;;;;;30.44;19.45;99122.63;5060051;28;20876;-72